sensor_id;sensor_type;location;lat;lon;timestamp;temperature;humidity
21602;DHT22;10963;50.934;4.668;2023-05-10T00:00:59;14.70;99.90
21602;DHT22;10963;50.934;4.668;2023-05-10T00:03:28;14.80;99.90
21602;DHT22;10963;50.934;4.668;2023-05-10T00:05:56;14.80;99.90
21602;DHT22;10963;50.934;4.668;2023-05-10T00:08:24;14.70;99.90
21602;DHT22;10963;50.934;4.668;2023-05-10T00:10:53;14.80;99.90
21602;DHT22;10963;50.934;4.668;2023-05-10T00:13:18;14.70;99.90
21602;DHT22;10963;50.934;4.668;2023-05-10T00:15:46;14.60;99.90
21602;DHT22;10963;50.934;4.668;2023-05-10T00:18:12;14.60;99.90
21602;DHT22;10963;50.934;4.668;2023-05-10T00:20:40;14.60;99.90
21602;DHT22;10963;50.934;4.668;2023-05-10T00:23:05;14.70;99.90
21602;DHT22;10963;50.934;4.668;2023-05-10T00:25:33;14.80;99.90
21602;DHT22;10963;50.934;4.668;2023-05-10T00:27:59;14.80;99.90
21602;DHT22;10963;50.934;4.668;2023-05-10T00:30:26;14.80;99.90
21602;DHT22;10963;50.934;4.668;2023-05-10T00:32:52;14.80;99.90
21602;DHT22;10963;50.934;4.668;2023-05-10T00:35:18;14.80;99.90
21602;DHT22;10963;50.934;4.668;2023-05-10T00:37:43;14.80;99.90
21602;DHT22;10963;50.934;4.668;2023-05-10T00:40:11;14.90;99.90
21602;DHT22;10963;50.934;4.668;2023-05-10T00:42:41;14.70;99.90
21602;DHT22;10963;50.934;4.668;2023-05-10T00:45:09;14.70;99.90
21602;DHT22;10963;50.934;4.668;2023-05-10T00:47:35;14.70;99.90
21602;DHT22;10963;50.934;4.668;2023-05-10T00:50:03;14.60;99.90
21602;DHT22;10963;50.934;4.668;2023-05-10T00:52:30;14.70;99.90
21602;DHT22;10963;50.934;4.668;2023-05-10T00:54:56;14.60;99.90
21602;DHT22;10963;50.934;4.668;2023-05-10T00:57:22;14.70;99.90
21602;DHT22;10963;50.934;4.668;2023-05-10T00:59:48;14.70;99.90
21602;DHT22;10963;50.934;4.668;2023-05-10T01:02:14;14.50;99.90
21602;DHT22;10963;50.934;4.668;2023-05-10T01:04:43;14.50;99.90
21602;DHT22;10963;50.934;4.668;2023-05-10T01:07:08;14.60;99.90
21602;DHT22;10963;50.934;4.668;2023-05-10T01:09:34;14.60;99.90
21602;DHT22;10963;50.934;4.668;2023-05-10T01:12:03;14.60;99.90
21602;DHT22;10963;50.934;4.668;2023-05-10T01:14:32;14.60;99.90
21602;DHT22;10963;50.934;4.668;2023-05-10T01:17:00;14.60;99.90
21602;DHT22;10963;50.934;4.668;2023-05-10T01:19:30;14.50;99.90
21602;DHT22;10963;50.934;4.668;2023-05-10T01:33:10;14.70;99.90
21602;DHT22;10963;50.934;4.668;2023-05-10T01:35:40;14.70;99.90
21602;DHT22;10963;50.934;4.668;2023-05-10T01:38:26;14.70;99.90
21602;DHT22;10963;50.934;4.668;2023-05-10T01:43:33;14.80;99.90
21602;DHT22;10963;50.934;4.668;2023-05-10T01:46:10;14.70;99.90
21602;DHT22;10963;50.934;4.668;2023-05-10T01:48:47;14.80;99.90
21602;DHT22;10963;50.934;4.668;2023-05-10T01:51:23;14.70;99.90
21602;DHT22;10963;50.934;4.668;2023-05-10T01:53:50;14.60;99.90
21602;DHT22;10963;50.934;4.668;2023-05-10T01:56:19;14.60;99.90
21602;DHT22;10963;50.934;4.668;2023-05-10T01:58:50;14.60;99.90
21602;DHT22;10963;50.934;4.668;2023-05-10T02:01:19;14.50;99.90
21602;DHT22;10963;50.934;4.668;2023-05-10T02:03:52;14.60;99.90
21602;DHT22;10963;50.934;4.668;2023-05-10T02:06:22;14.60;99.90
21602;DHT22;10963;50.934;4.668;2023-05-10T02:08:49;14.50;99.90
21602;DHT22;10963;50.934;4.668;2023-05-10T02:11:18;14.50;99.90
21602;DHT22;10963;50.934;4.668;2023-05-10T02:13:48;14.50;99.90
21602;DHT22;10963;50.934;4.668;2023-05-10T02:16:23;14.50;99.90
21602;DHT22;10963;50.934;4.668;2023-05-10T02:18:52;14.50;99.90
21602;DHT22;10963;50.934;4.668;2023-05-10T02:21:21;14.50;99.90
21602;DHT22;10963;50.934;4.668;2023-05-10T02:23:52;14.60;99.90
21602;DHT22;10963;50.934;4.668;2023-05-10T02:26:20;14.50;99.90
21602;DHT22;10963;50.934;4.668;2023-05-10T02:28:50;14.50;99.90
21602;DHT22;10963;50.934;4.668;2023-05-10T02:31:20;14.60;99.90
21602;DHT22;10963;50.934;4.668;2023-05-10T02:33:47;14.60;99.90
21602;DHT22;10963;50.934;4.668;2023-05-10T02:36:16;14.70;99.90
21602;DHT22;10963;50.934;4.668;2023-05-10T02:38:43;14.70;99.90
21602;DHT22;10963;50.934;4.668;2023-05-10T02:41:10;14.60;99.90
21602;DHT22;10963;50.934;4.668;2023-05-10T02:43:38;14.60;99.90
21602;DHT22;10963;50.934;4.668;2023-05-10T02:46:05;14.60;99.90
21602;DHT22;10963;50.934;4.668;2023-05-10T02:48:33;14.70;99.90
21602;DHT22;10963;50.934;4.668;2023-05-10T02:51:04;14.60;99.90
21602;DHT22;10963;50.934;4.668;2023-05-10T02:53:33;14.60;99.90
21602;DHT22;10963;50.934;4.668;2023-05-10T02:56:04;14.50;99.90
21602;DHT22;10963;50.934;4.668;2023-05-10T02:58:32;14.70;99.90
21602;DHT22;10963;50.934;4.668;2023-05-10T03:00:59;14.70;99.90
21602;DHT22;10963;50.934;4.668;2023-05-10T03:03:26;14.90;99.90
21602;DHT22;10963;50.934;4.668;2023-05-10T03:05:51;14.90;99.90
21602;DHT22;10963;50.934;4.668;2023-05-10T03:08:21;14.90;99.90
21602;DHT22;10963;50.934;4.668;2023-05-10T03:11:22;15.00;99.90
21602;DHT22;10963;50.934;4.668;2023-05-10T03:16:46;15.00;99.90
21602;DHT22;10963;50.934;4.668;2023-05-10T03:19:22;14.80;99.90
21602;DHT22;10963;50.934;4.668;2023-05-10T03:21:51;14.80;99.90
21602;DHT22;10963;50.934;4.668;2023-05-10T03:24:22;14.60;99.90
21602;DHT22;10963;50.934;4.668;2023-05-10T03:26:49;14.50;99.90
21602;DHT22;10963;50.934;4.668;2023-05-10T03:29:16;14.50;99.90
21602;DHT22;10963;50.934;4.668;2023-05-10T03:31:42;14.70;99.90
21602;DHT22;10963;50.934;4.668;2023-05-10T03:34:08;14.70;99.90
21602;DHT22;10963;50.934;4.668;2023-05-10T03:36:36;14.70;99.90
21602;DHT22;10963;50.934;4.668;2023-05-10T03:39:02;14.70;99.90
21602;DHT22;10963;50.934;4.668;2023-05-10T03:41:28;14.80;99.90
21602;DHT22;10963;50.934;4.668;2023-05-10T03:43:54;14.70;99.90
21602;DHT22;10963;50.934;4.668;2023-05-10T03:46:20;14.70;99.90
21602;DHT22;10963;50.934;4.668;2023-05-10T03:48:46;14.70;99.90
21602;DHT22;10963;50.934;4.668;2023-05-10T03:51:11;14.70;99.90
21602;DHT22;10963;50.934;4.668;2023-05-10T03:53:39;14.70;99.90
21602;DHT22;10963;50.934;4.668;2023-05-10T03:56:07;14.80;99.90
21602;DHT22;10963;50.934;4.668;2023-05-10T03:58:33;14.80;99.90
21602;DHT22;10963;50.934;4.668;2023-05-10T04:00:59;14.70;99.90
21602;DHT22;10963;50.934;4.668;2023-05-10T04:03:24;14.80;99.90
21602;DHT22;10963;50.934;4.668;2023-05-10T04:06:03;14.60;99.90
21602;DHT22;10963;50.934;4.668;2023-05-10T04:08:29;14.60;99.90
21602;DHT22;10963;50.934;4.668;2023-05-10T04:11:04;14.50;99.90
21602;DHT22;10963;50.934;4.668;2023-05-10T04:13:29;14.50;99.90
21602;DHT22;10963;50.934;4.668;2023-05-10T04:15:57;14.50;99.90
21602;DHT22;10963;50.934;4.668;2023-05-10T04:18:23;14.50;99.90
21602;DHT22;10963;50.934;4.668;2023-05-10T04:20:49;14.50;99.90
21602;DHT22;10963;50.934;4.668;2023-05-10T04:23:21;14.50;99.90
21602;DHT22;10963;50.934;4.668;2023-05-10T04:25:49;14.20;99.90
21602;DHT22;10963;50.934;4.668;2023-05-10T04:28:14;14.20;99.90
21602;DHT22;10963;50.934;4.668;2023-05-10T04:30:40;14.10;99.90
21602;DHT22;10963;50.934;4.668;2023-05-10T04:33:09;14.20;99.90
21602;DHT22;10963;50.934;4.668;2023-05-10T04:35:36;14.10;99.90
21602;DHT22;10963;50.934;4.668;2023-05-10T04:38:07;14.30;99.90
21602;DHT22;10963;50.934;4.668;2023-05-10T04:40:35;14.30;99.90
21602;DHT22;10963;50.934;4.668;2023-05-10T04:43:01;14.30;99.90
21602;DHT22;10963;50.934;4.668;2023-05-10T04:45:29;14.20;99.90
21602;DHT22;10963;50.934;4.668;2023-05-10T04:47:55;14.20;99.90
21602;DHT22;10963;50.934;4.668;2023-05-10T04:50:20;14.20;99.90
21602;DHT22;10963;50.934;4.668;2023-05-10T04:52:46;14.20;99.90
21602;DHT22;10963;50.934;4.668;2023-05-10T04:55:12;14.20;99.90
21602;DHT22;10963;50.934;4.668;2023-05-10T04:57:40;14.10;99.90
21602;DHT22;10963;50.934;4.668;2023-05-10T05:00:10;14.10;99.90
21602;DHT22;10963;50.934;4.668;2023-05-10T05:02:42;14.00;99.90
21602;DHT22;10963;50.934;4.668;2023-05-10T05:05:09;14.00;99.90
21602;DHT22;10963;50.934;4.668;2023-05-10T05:07:37;13.90;99.90
21602;DHT22;10963;50.934;4.668;2023-05-10T05:10:07;13.90;99.90
21602;DHT22;10963;50.934;4.668;2023-05-10T05:12:33;14.00;99.90
21602;DHT22;10963;50.934;4.668;2023-05-10T05:14:59;13.90;99.90
21602;DHT22;10963;50.934;4.668;2023-05-10T05:17:24;14.00;99.90
21602;DHT22;10963;50.934;4.668;2023-05-10T05:19:50;13.90;99.90
21602;DHT22;10963;50.934;4.668;2023-05-10T05:22:16;13.90;99.90
21602;DHT22;10963;50.934;4.668;2023-05-10T05:24:42;13.90;99.90
21602;DHT22;10963;50.934;4.668;2023-05-10T05:27:10;13.90;99.90
21602;DHT22;10963;50.934;4.668;2023-05-10T05:29:36;14.00;99.90
21602;DHT22;10963;50.934;4.668;2023-05-10T05:32:03;14.00;99.90
21602;DHT22;10963;50.934;4.668;2023-05-10T05:34:29;14.10;99.90
21602;DHT22;10963;50.934;4.668;2023-05-10T05:36:55;14.10;99.90
21602;DHT22;10963;50.934;4.668;2023-05-10T05:39:26;14.20;99.90
21602;DHT22;10963;50.934;4.668;2023-05-10T05:41:54;14.30;99.90
21602;DHT22;10963;50.934;4.668;2023-05-10T05:44:22;14.40;99.90
21602;DHT22;10963;50.934;4.668;2023-05-10T05:46:50;14.50;99.90
21602;DHT22;10963;50.934;4.668;2023-05-10T05:49:18;14.50;99.90
21602;DHT22;10963;50.934;4.668;2023-05-10T05:51:44;14.60;99.90
21602;DHT22;10963;50.934;4.668;2023-05-10T05:54:10;14.60;99.90
21602;DHT22;10963;50.934;4.668;2023-05-10T05:56:38;14.70;99.90
21602;DHT22;10963;50.934;4.668;2023-05-10T05:59:04;14.80;99.90
21602;DHT22;10963;50.934;4.668;2023-05-10T06:01:31;14.90;99.90
21602;DHT22;10963;50.934;4.668;2023-05-10T06:04:00;15.10;99.90
21602;DHT22;10963;50.934;4.668;2023-05-10T06:06:28;15.10;99.90
21602;DHT22;10963;50.934;4.668;2023-05-10T06:08:54;15.20;99.90
21602;DHT22;10963;50.934;4.668;2023-05-10T06:11:20;15.40;99.90
21602;DHT22;10963;50.934;4.668;2023-05-10T06:13:49;15.40;99.90
21602;DHT22;10963;50.934;4.668;2023-05-10T06:16:17;15.50;99.90
21602;DHT22;10963;50.934;4.668;2023-05-10T06:18:43;15.60;99.90
21602;DHT22;10963;50.934;4.668;2023-05-10T06:21:10;15.70;99.90
21602;DHT22;10963;50.934;4.668;2023-05-10T06:23:38;15.70;99.90
21602;DHT22;10963;50.934;4.668;2023-05-10T06:26:04;15.80;99.90
21602;DHT22;10963;50.934;4.668;2023-05-10T06:28:34;15.60;99.90
21602;DHT22;10963;50.934;4.668;2023-05-10T06:31:00;15.60;99.90
21602;DHT22;10963;50.934;4.668;2023-05-10T06:33:28;15.70;99.90
21602;DHT22;10963;50.934;4.668;2023-05-10T06:35:54;15.80;99.90
21602;DHT22;10963;50.934;4.668;2023-05-10T06:38:22;15.80;99.90
21602;DHT22;10963;50.934;4.668;2023-05-10T06:40:50;15.80;99.90
21602;DHT22;10963;50.934;4.668;2023-05-10T06:43:16;15.80;99.90
21602;DHT22;10963;50.934;4.668;2023-05-10T06:45:41;15.50;99.90
21602;DHT22;10963;50.934;4.668;2023-05-10T06:48:07;15.60;99.90
21602;DHT22;10963;50.934;4.668;2023-05-10T06:50:33;15.70;99.90
21602;DHT22;10963;50.934;4.668;2023-05-10T06:53:01;15.80;99.90
21602;DHT22;10963;50.934;4.668;2023-05-10T06:55:29;15.80;99.90
21602;DHT22;10963;50.934;4.668;2023-05-10T06:57:58;15.80;99.90
21602;DHT22;10963;50.934;4.668;2023-05-10T07:00:26;15.90;99.90
21602;DHT22;10963;50.934;4.668;2023-05-10T07:02:52;15.90;99.90
21602;DHT22;10963;50.934;4.668;2023-05-10T07:05:20;16.10;99.90
21602;DHT22;10963;50.934;4.668;2023-05-10T07:07:46;16.40;99.90
21602;DHT22;10963;50.934;4.668;2023-05-10T07:10:12;16.50;99.90
21602;DHT22;10963;50.934;4.668;2023-05-10T07:12:38;16.70;99.90
21602;DHT22;10963;50.934;4.668;2023-05-10T07:15:04;16.90;99.90
21602;DHT22;10963;50.934;4.668;2023-05-10T07:17:30;17.20;99.90
21602;DHT22;10963;50.934;4.668;2023-05-10T07:19:56;17.20;99.90
21602;DHT22;10963;50.934;4.668;2023-05-10T07:22:24;17.50;99.90
21602;DHT22;10963;50.934;4.668;2023-05-10T07:24:52;17.60;99.90
21602;DHT22;10963;50.934;4.668;2023-05-10T07:27:23;17.30;99.90
21602;DHT22;10963;50.934;4.668;2023-05-10T07:29:49;17.20;99.90
21602;DHT22;10963;50.934;4.668;2023-05-10T07:32:15;16.80;99.90
21602;DHT22;10963;50.934;4.668;2023-05-10T07:34:40;16.40;99.90
21602;DHT22;10963;50.934;4.668;2023-05-10T07:37:08;16.20;99.90
21602;DHT22;10963;50.934;4.668;2023-05-10T07:39:36;15.90;99.90
21602;DHT22;10963;50.934;4.668;2023-05-10T07:42:03;15.60;99.90
21602;DHT22;10963;50.934;4.668;2023-05-10T07:44:28;15.50;99.90
21602;DHT22;10963;50.934;4.668;2023-05-10T07:46:54;15.20;99.90
21602;DHT22;10963;50.934;4.668;2023-05-10T07:49:22;15.10;99.90
21602;DHT22;10963;50.934;4.668;2023-05-10T07:51:49;15.00;99.90
21602;DHT22;10963;50.934;4.668;2023-05-10T07:54:15;15.10;99.90
21602;DHT22;10963;50.934;4.668;2023-05-10T07:56:41;15.20;99.90
21602;DHT22;10963;50.934;4.668;2023-05-10T07:59:15;15.10;99.90
21602;DHT22;10963;50.934;4.668;2023-05-10T08:01:41;15.20;99.90
21602;DHT22;10963;50.934;4.668;2023-05-10T08:04:09;15.10;99.90
21602;DHT22;10963;50.934;4.668;2023-05-10T08:06:35;15.20;99.90
21602;DHT22;10963;50.934;4.668;2023-05-10T08:09:04;15.40;99.90
21602;DHT22;10963;50.934;4.668;2023-05-10T08:11:30;15.40;99.90
21602;DHT22;10963;50.934;4.668;2023-05-10T08:13:58;15.40;99.90
21602;DHT22;10963;50.934;4.668;2023-05-10T08:16:26;15.40;99.90
21602;DHT22;10963;50.934;4.668;2023-05-10T08:18:52;15.30;99.90
21602;DHT22;10963;50.934;4.668;2023-05-10T08:21:22;15.40;99.90
21602;DHT22;10963;50.934;4.668;2023-05-10T08:23:50;15.60;99.90
21602;DHT22;10963;50.934;4.668;2023-05-10T08:26:16;15.60;99.90
21602;DHT22;10963;50.934;4.668;2023-05-10T08:28:42;15.80;99.90
21602;DHT22;10963;50.934;4.668;2023-05-10T08:31:07;15.70;99.90
21602;DHT22;10963;50.934;4.668;2023-05-10T08:33:35;15.70;99.90
21602;DHT22;10963;50.934;4.668;2023-05-10T08:36:04;15.40;99.90
21602;DHT22;10963;50.934;4.668;2023-05-10T08:38:29;15.60;99.90
21602;DHT22;10963;50.934;4.668;2023-05-10T08:40:58;15.80;99.90
21602;DHT22;10963;50.934;4.668;2023-05-10T08:43:30;16.10;99.90
21602;DHT22;10963;50.934;4.668;2023-05-10T08:46:02;16.40;99.90
21602;DHT22;10963;50.934;4.668;2023-05-10T08:48:34;16.70;99.90
21602;DHT22;10963;50.934;4.668;2023-05-10T08:51:00;16.60;99.90
21602;DHT22;10963;50.934;4.668;2023-05-10T08:53:29;16.60;99.90
21602;DHT22;10963;50.934;4.668;2023-05-10T08:56:03;16.50;99.90
21602;DHT22;10963;50.934;4.668;2023-05-10T08:58:29;16.40;99.90
21602;DHT22;10963;50.934;4.668;2023-05-10T09:00:55;16.40;99.90
21602;DHT22;10963;50.934;4.668;2023-05-10T09:03:21;16.50;99.90
21602;DHT22;10963;50.934;4.668;2023-05-10T09:05:48;16.50;99.90
21602;DHT22;10963;50.934;4.668;2023-05-10T09:08:14;16.60;99.90
21602;DHT22;10963;50.934;4.668;2023-05-10T09:10:43;16.60;99.90
21602;DHT22;10963;50.934;4.668;2023-05-10T09:13:10;16.40;99.90
21602;DHT22;10963;50.934;4.668;2023-05-10T09:15:37;16.30;99.90
21602;DHT22;10963;50.934;4.668;2023-05-10T09:18:05;16.60;99.90
21602;DHT22;10963;50.934;4.668;2023-05-10T09:20:34;16.60;99.90
21602;DHT22;10963;50.934;4.668;2023-05-10T09:23:02;16.50;99.90
21602;DHT22;10963;50.934;4.668;2023-05-10T09:25:27;16.40;99.90
21602;DHT22;10963;50.934;4.668;2023-05-10T09:27:55;16.20;99.90
21602;DHT22;10963;50.934;4.668;2023-05-10T09:30:25;16.10;99.90
21602;DHT22;10963;50.934;4.668;2023-05-10T09:32:57;16.00;99.90
21602;DHT22;10963;50.934;4.668;2023-05-10T09:35:25;16.20;99.90
21602;DHT22;10963;50.934;4.668;2023-05-10T09:37:55;16.30;99.90
21602;DHT22;10963;50.934;4.668;2023-05-10T09:40:25;16.30;99.90
21602;DHT22;10963;50.934;4.668;2023-05-10T09:43:06;16.60;99.90
21602;DHT22;10963;50.934;4.668;2023-05-10T09:45:35;16.40;99.90
21602;DHT22;10963;50.934;4.668;2023-05-10T09:48:03;16.40;99.90
21602;DHT22;10963;50.934;4.668;2023-05-10T09:50:30;16.50;99.90
21602;DHT22;10963;50.934;4.668;2023-05-10T09:53:00;16.60;99.90
21602;DHT22;10963;50.934;4.668;2023-05-10T09:55:39;16.30;99.90
21602;DHT22;10963;50.934;4.668;2023-05-10T09:58:05;16.30;99.90
21602;DHT22;10963;50.934;4.668;2023-05-10T10:00:40;16.20;99.90
21602;DHT22;10963;50.934;4.668;2023-05-10T10:03:07;16.30;99.90
21602;DHT22;10963;50.934;4.668;2023-05-10T10:05:40;16.40;99.90
21602;DHT22;10963;50.934;4.668;2023-05-10T10:08:08;16.50;99.90
21602;DHT22;10963;50.934;4.668;2023-05-10T10:10:34;16.30;99.90
21602;DHT22;10963;50.934;4.668;2023-05-10T10:13:02;16.30;99.90
21602;DHT22;10963;50.934;4.668;2023-05-10T10:15:28;16.50;99.90
21602;DHT22;10963;50.934;4.668;2023-05-10T10:17:55;16.50;99.90
21602;DHT22;10963;50.934;4.668;2023-05-10T10:20:22;16.70;99.90
21602;DHT22;10963;50.934;4.668;2023-05-10T10:22:49;17.10;99.90
21602;DHT22;10963;50.934;4.668;2023-05-10T10:25:17;16.70;99.90
21602;DHT22;10963;50.934;4.668;2023-05-10T10:36:06;17.40;99.90
21602;DHT22;10963;50.934;4.668;2023-05-10T10:41:37;17.40;99.90
21602;DHT22;10963;50.934;4.668;2023-05-10T10:44:25;17.50;99.90
21602;DHT22;10963;50.934;4.668;2023-05-10T10:52:34;16.90;99.90
21602;DHT22;10963;50.934;4.668;2023-05-10T10:57:54;17.00;99.90
21602;DHT22;10963;50.934;4.668;2023-05-10T11:00:29;17.10;99.90
21602;DHT22;10963;50.934;4.668;2023-05-10T11:03:17;17.40;99.90
21602;DHT22;10963;50.934;4.668;2023-05-10T11:05:48;17.50;99.90
21602;DHT22;10963;50.934;4.668;2023-05-10T11:13:34;18.00;99.90
21602;DHT22;10963;50.934;4.668;2023-05-10T11:18:39;18.90;99.90
21602;DHT22;10963;50.934;4.668;2023-05-10T11:21:09;19.10;99.90
21602;DHT22;10963;50.934;4.668;2023-05-10T11:23:53;19.20;99.90
21602;DHT22;10963;50.934;4.668;2023-05-10T11:26:26;19.20;99.90
21602;DHT22;10963;50.934;4.668;2023-05-10T11:28:55;19.30;99.90
21602;DHT22;10963;50.934;4.668;2023-05-10T11:31:21;19.30;99.90
21602;DHT22;10963;50.934;4.668;2023-05-10T11:33:53;19.00;99.90
21602;DHT22;10963;50.934;4.668;2023-05-10T11:36:35;18.50;99.90
21602;DHT22;10963;50.934;4.668;2023-05-10T11:39:06;18.50;99.90
21602;DHT22;10963;50.934;4.668;2023-05-10T11:41:31;18.80;99.90
21602;DHT22;10963;50.934;4.668;2023-05-10T11:44:00;19.30;99.90
21602;DHT22;10963;50.934;4.668;2023-05-10T11:46:27;19.50;99.90
21602;DHT22;10963;50.934;4.668;2023-05-10T11:48:57;20.30;99.90
21602;DHT22;10963;50.934;4.668;2023-05-10T11:51:25;20.80;99.90
21602;DHT22;10963;50.934;4.668;2023-05-10T11:53:54;21.30;99.90
21602;DHT22;10963;50.934;4.668;2023-05-10T11:56:20;21.30;99.90
21602;DHT22;10963;50.934;4.668;2023-05-10T11:58:55;21.00;99.90
21602;DHT22;10963;50.934;4.668;2023-05-10T12:01:21;21.30;99.90
21602;DHT22;10963;50.934;4.668;2023-05-10T12:03:49;21.60;99.90
21602;DHT22;10963;50.934;4.668;2023-05-10T12:06:20;21.40;99.90
21602;DHT22;10963;50.934;4.668;2023-05-10T12:08:47;21.50;99.90
21602;DHT22;10963;50.934;4.668;2023-05-10T12:11:16;21.50;99.90
21602;DHT22;10963;50.934;4.668;2023-05-10T12:13:43;21.50;99.90
21602;DHT22;10963;50.934;4.668;2023-05-10T12:16:23;21.30;99.90
21602;DHT22;10963;50.934;4.668;2023-05-10T12:18:56;21.60;99.90
21602;DHT22;10963;50.934;4.668;2023-05-10T12:21:24;21.70;99.90
21602;DHT22;10963;50.934;4.668;2023-05-10T12:23:52;21.30;99.90
21602;DHT22;10963;50.934;4.668;2023-05-10T12:26:21;21.00;99.90
21602;DHT22;10963;50.934;4.668;2023-05-10T12:28:50;21.10;99.90
21602;DHT22;10963;50.934;4.668;2023-05-10T12:31:16;20.70;99.90
21602;DHT22;10963;50.934;4.668;2023-05-10T12:33:44;21.30;99.90
21602;DHT22;10963;50.934;4.668;2023-05-10T12:36:15;20.70;99.90
21602;DHT22;10963;50.934;4.668;2023-05-10T12:38:46;20.60;99.90
21602;DHT22;10963;50.934;4.668;2023-05-10T12:41:21;20.90;99.90
21602;DHT22;10963;50.934;4.668;2023-05-10T12:43:46;21.00;99.90
21602;DHT22;10963;50.934;4.668;2023-05-10T12:46:17;21.20;99.90
21602;DHT22;10963;50.934;4.668;2023-05-10T12:48:43;21.60;99.90
21602;DHT22;10963;50.934;4.668;2023-05-10T12:51:10;21.60;99.90
21602;DHT22;10963;50.934;4.668;2023-05-10T12:53:41;21.30;99.90
21602;DHT22;10963;50.934;4.668;2023-05-10T12:56:09;21.10;99.90
21602;DHT22;10963;50.934;4.668;2023-05-10T12:58:35;21.20;99.90
21602;DHT22;10963;50.934;4.668;2023-05-10T13:01:01;20.80;99.90
21602;DHT22;10963;50.934;4.668;2023-05-10T13:03:26;20.80;99.90
21602;DHT22;10963;50.934;4.668;2023-05-10T13:05:52;20.70;99.90
21602;DHT22;10963;50.934;4.668;2023-05-10T13:08:18;20.20;99.90
21602;DHT22;10963;50.934;4.668;2023-05-10T13:10:43;20.20;99.90
21602;DHT22;10963;50.934;4.668;2023-05-10T13:13:09;20.10;99.90
21602;DHT22;10963;50.934;4.668;2023-05-10T13:15:35;20.40;99.90
21602;DHT22;10963;50.934;4.668;2023-05-10T13:18:03;20.60;99.90
21602;DHT22;10963;50.934;4.668;2023-05-10T13:20:29;21.00;99.90
21602;DHT22;10963;50.934;4.668;2023-05-10T13:22:55;21.00;99.90
21602;DHT22;10963;50.934;4.668;2023-05-10T13:25:21;21.20;99.90
21602;DHT22;10963;50.934;4.668;2023-05-10T13:27:47;20.50;99.90
21602;DHT22;10963;50.934;4.668;2023-05-10T13:30:12;19.90;99.90
21602;DHT22;10963;50.934;4.668;2023-05-10T13:32:38;19.50;99.90
21602;DHT22;10963;50.934;4.668;2023-05-10T13:35:04;19.50;99.90
21602;DHT22;10963;50.934;4.668;2023-05-10T13:37:31;19.80;99.90
21602;DHT22;10963;50.934;4.668;2023-05-10T13:39:57;19.70;99.90
21602;DHT22;10963;50.934;4.668;2023-05-10T13:42:23;19.80;99.90
21602;DHT22;10963;50.934;4.668;2023-05-10T13:44:51;19.80;99.90
21602;DHT22;10963;50.934;4.668;2023-05-10T13:47:17;20.20;99.90
21602;DHT22;10963;50.934;4.668;2023-05-10T13:49:44;20.60;99.90
21602;DHT22;10963;50.934;4.668;2023-05-10T13:52:13;20.70;99.90
21602;DHT22;10963;50.934;4.668;2023-05-10T13:54:41;20.40;99.90
21602;DHT22;10963;50.934;4.668;2023-05-10T13:57:07;20.40;99.90
21602;DHT22;10963;50.934;4.668;2023-05-10T13:59:37;19.50;99.90
21602;DHT22;10963;50.934;4.668;2023-05-10T14:02:02;19.40;99.90
21602;DHT22;10963;50.934;4.668;2023-05-10T14:04:30;19.40;99.90
21602;DHT22;10963;50.934;4.668;2023-05-10T14:07:00;19.40;99.90
21602;DHT22;10963;50.934;4.668;2023-05-10T14:09:28;19.40;99.90
21602;DHT22;10963;50.934;4.668;2023-05-10T14:11:56;19.50;99.90
21602;DHT22;10963;50.934;4.668;2023-05-10T14:14:23;19.70;99.90
21602;DHT22;10963;50.934;4.668;2023-05-10T14:16:48;19.90;99.90
21602;DHT22;10963;50.934;4.668;2023-05-10T14:19:16;19.60;99.90
21602;DHT22;10963;50.934;4.668;2023-05-10T14:21:42;19.50;99.90
21602;DHT22;10963;50.934;4.668;2023-05-10T14:24:08;19.50;99.90
21602;DHT22;10963;50.934;4.668;2023-05-10T14:26:36;19.60;99.90
21602;DHT22;10963;50.934;4.668;2023-05-10T14:29:04;19.80;99.90
21602;DHT22;10963;50.934;4.668;2023-05-10T14:31:34;20.10;99.90
21602;DHT22;10963;50.934;4.668;2023-05-10T14:34:02;20.20;99.90
21602;DHT22;10963;50.934;4.668;2023-05-10T14:36:30;20.70;99.90
21602;DHT22;10963;50.934;4.668;2023-05-10T14:38:57;20.50;99.90
21602;DHT22;10963;50.934;4.668;2023-05-10T14:41:23;20.80;99.90
21602;DHT22;10963;50.934;4.668;2023-05-10T14:43:50;20.80;99.90
21602;DHT22;10963;50.934;4.668;2023-05-10T14:46:19;20.80;99.90
21602;DHT22;10963;50.934;4.668;2023-05-10T14:48:45;20.70;99.90
21602;DHT22;10963;50.934;4.668;2023-05-10T14:51:13;20.50;99.90
21602;DHT22;10963;50.934;4.668;2023-05-10T14:53:39;20.30;99.90
21602;DHT22;10963;50.934;4.668;2023-05-10T14:56:05;20.50;99.90
21602;DHT22;10963;50.934;4.668;2023-05-10T14:58:30;20.30;99.90
21602;DHT22;10963;50.934;4.668;2023-05-10T15:00:56;20.60;99.90
21602;DHT22;10963;50.934;4.668;2023-05-10T15:03:24;20.90;99.90
21602;DHT22;10963;50.934;4.668;2023-05-10T15:05:50;20.80;99.90
21602;DHT22;10963;50.934;4.668;2023-05-10T15:08:17;21.00;99.90
21602;DHT22;10963;50.934;4.668;2023-05-10T15:10:42;20.80;99.90
21602;DHT22;10963;50.934;4.668;2023-05-10T15:13:08;20.70;99.90
21602;DHT22;10963;50.934;4.668;2023-05-10T15:15:34;20.40;99.90
21602;DHT22;10963;50.934;4.668;2023-05-10T15:18:01;20.40;99.90
21602;DHT22;10963;50.934;4.668;2023-05-10T15:20:27;20.40;99.90
21602;DHT22;10963;50.934;4.668;2023-05-10T15:22:53;20.10;99.90
21602;DHT22;10963;50.934;4.668;2023-05-10T15:25:21;19.80;99.90
21602;DHT22;10963;50.934;4.668;2023-05-10T15:27:48;19.90;99.90
21602;DHT22;10963;50.934;4.668;2023-05-10T15:30:13;19.80;99.90
21602;DHT22;10963;50.934;4.668;2023-05-10T15:32:42;19.70;99.90
21602;DHT22;10963;50.934;4.668;2023-05-10T15:35:13;19.40;99.90
21602;DHT22;10963;50.934;4.668;2023-05-10T15:37:41;19.50;99.90
21602;DHT22;10963;50.934;4.668;2023-05-10T15:40:12;19.60;99.90
21602;DHT22;10963;50.934;4.668;2023-05-10T15:42:37;19.40;99.90
21602;DHT22;10963;50.934;4.668;2023-05-10T15:45:04;19.20;99.90
21602;DHT22;10963;50.934;4.668;2023-05-10T15:47:30;19.10;99.90
21602;DHT22;10963;50.934;4.668;2023-05-10T15:49:56;19.00;99.90
21602;DHT22;10963;50.934;4.668;2023-05-10T15:52:21;18.80;99.90
21602;DHT22;10963;50.934;4.668;2023-05-10T15:54:52;18.30;99.90
21602;DHT22;10963;50.934;4.668;2023-05-10T15:57:20;18.00;99.90
21602;DHT22;10963;50.934;4.668;2023-05-10T15:59:46;17.50;99.90
21602;DHT22;10963;50.934;4.668;2023-05-10T16:02:14;17.10;99.90
21602;DHT22;10963;50.934;4.668;2023-05-10T16:04:40;17.00;99.90
21602;DHT22;10963;50.934;4.668;2023-05-10T16:07:08;16.80;99.90
21602;DHT22;10963;50.934;4.668;2023-05-10T16:09:36;16.60;99.90
21602;DHT22;10963;50.934;4.668;2023-05-10T16:12:04;16.50;99.90
21602;DHT22;10963;50.934;4.668;2023-05-10T16:14:30;16.30;99.90
21602;DHT22;10963;50.934;4.668;2023-05-10T16:16:56;16.30;99.90
21602;DHT22;10963;50.934;4.668;2023-05-10T16:19:21;16.20;99.90